sensor_id;sensor_type;location;lat;lon;timestamp;P1;durP1;ratioP1;P2;durP2;ratioP2
72127;SDS011;60000;51.030;7.024;2022-09-14T00:00:46;11.27;;;5.00;;
72127;SDS011;60000;51.030;7.024;2022-09-14T00:03:11;11.07;;;5.77;;
72127;SDS011;60000;51.030;7.024;2022-09-14T00:05:37;11.73;;;6.22;;
72127;SDS011;60000;51.030;7.024;2022-09-14T00:08:03;12.53;;;5.67;;
72127;SDS011;60000;51.030;7.024;2022-09-14T00:10:28;13.40;;;6.53;;
72127;SDS011;60000;51.030;7.024;2022-09-14T00:12:53;15.10;;;6.70;;
72127;SDS011;60000;51.030;7.024;2022-09-14T00:15:19;12.43;;;6.22;;
72127;SDS011;60000;51.030;7.024;2022-09-14T00:17:44;13.17;;;6.00;;
72127;SDS011;60000;51.030;7.024;2022-09-14T00:20:10;13.37;;;6.97;;
72127;SDS011;60000;51.030;7.024;2022-09-14T00:22:35;15.60;;;6.07;;
72127;SDS011;60000;51.030;7.024;2022-09-14T00:25:01;12.10;;;5.87;;
72127;SDS011;60000;51.030;7.024;2022-09-14T00:27:26;12.77;;;5.97;;
72127;SDS011;60000;51.030;7.024;2022-09-14T00:29:51;16.33;;;6.40;;
72127;SDS011;60000;51.030;7.024;2022-09-14T00:32:16;12.33;;;6.10;;
72127;SDS011;60000;51.030;7.024;2022-09-14T00:34:42;13.40;;;6.63;;
72127;SDS011;60000;51.030;7.024;2022-09-14T00:37:07;13.00;;;7.10;;
72127;SDS011;60000;51.030;7.024;2022-09-14T00:39:32;15.93;;;8.37;;
72127;SDS011;60000;51.030;7.024;2022-09-14T00:41:58;15.13;;;8.13;;
72127;SDS011;60000;51.030;7.024;2022-09-14T00:46:50;15.27;;;7.40;;
72127;SDS011;60000;51.030;7.024;2022-09-14T00:52:00;13.43;;;7.28;;
72127;SDS011;60000;51.030;7.024;2022-09-14T00:54:38;15.35;;;7.20;;
72127;SDS011;60000;51.030;7.024;2022-09-14T00:57:07;15.32;;;7.15;;
72127;SDS011;60000;51.030;7.024;2022-09-14T00:59:35;15.80;;;8.05;;
72127;SDS011;60000;51.030;7.024;2022-09-14T01:02:02;15.87;;;8.23;;
72127;SDS011;60000;51.030;7.024;2022-09-14T01:04:28;15.35;;;7.80;;
72127;SDS011;60000;51.030;7.024;2022-09-14T01:12:08;17.23;;;9.40;;
72127;SDS011;60000;51.030;7.024;2022-09-14T01:14:57;19.52;;;8.73;;
72127;SDS011;60000;51.030;7.024;2022-09-14T01:17:43;16.77;;;8.57;;
72127;SDS011;60000;51.030;7.024;2022-09-14T01:23:07;20.23;;;9.38;;
72127;SDS011;60000;51.030;7.024;2022-09-14T01:25:43;20.13;;;9.38;;
72127;SDS011;60000;51.030;7.024;2022-09-14T01:31:42;16.25;;;8.63;;
72127;SDS011;60000;51.030;7.024;2022-09-14T01:34:08;18.90;;;9.30;;
72127;SDS011;60000;51.030;7.024;2022-09-14T01:37:02;21.48;;;9.35;;
72127;SDS011;60000;51.030;7.024;2022-09-14T01:39:36;18.80;;;9.25;;
72127;SDS011;60000;51.030;7.024;2022-09-14T01:42:05;23.10;;;9.93;;
72127;SDS011;60000;51.030;7.024;2022-09-14T01:44:36;20.98;;;11.13;;
72127;SDS011;60000;51.030;7.024;2022-09-14T01:47:10;19.57;;;9.63;;
72127;SDS011;60000;51.030;7.024;2022-09-14T01:49:45;19.85;;;10.07;;
72127;SDS011;60000;51.030;7.024;2022-09-14T01:52:18;19.35;;;9.40;;
72127;SDS011;60000;51.030;7.024;2022-09-14T01:54:54;21.90;;;10.07;;
72127;SDS011;60000;51.030;7.024;2022-09-14T01:57:42;23.98;;;10.40;;
72127;SDS011;60000;51.030;7.024;2022-09-14T02:00:13;22.00;;;9.80;;
72127;SDS011;60000;51.030;7.024;2022-09-14T02:05:18;24.15;;;11.55;;
72127;SDS011;60000;51.030;7.024;2022-09-14T02:07:52;25.48;;;10.52;;
72127;SDS011;60000;51.030;7.024;2022-09-14T02:10:18;23.35;;;10.95;;
72127;SDS011;60000;51.030;7.024;2022-09-14T02:12:44;19.73;;;10.37;;
72127;SDS011;60000;51.030;7.024;2022-09-14T02:15:10;23.83;;;11.23;;
72127;SDS011;60000;51.030;7.024;2022-09-14T02:17:37;24.70;;;11.45;;
72127;SDS011;60000;51.030;7.024;2022-09-14T02:20:04;25.80;;;11.93;;
72127;SDS011;60000;51.030;7.024;2022-09-14T02:22:32;24.42;;;12.35;;
72127;SDS011;60000;51.030;7.024;2022-09-14T02:24:57;25.97;;;11.83;;
72127;SDS011;60000;51.030;7.024;2022-09-14T02:27:23;22.52;;;10.93;;
72127;SDS011;60000;51.030;7.024;2022-09-14T02:29:49;23.00;;;10.97;;
72127;SDS011;60000;51.030;7.024;2022-09-14T02:32:29;23.90;;;11.77;;
72127;SDS011;60000;51.030;7.024;2022-09-14T02:38:17;25.95;;;12.15;;
72127;SDS011;60000;51.030;7.024;2022-09-14T02:40:52;22.30;;;11.37;;
72127;SDS011;60000;51.030;7.024;2022-09-14T02:52:01;23.67;;;11.32;;
72127;SDS011;60000;51.030;7.024;2022-09-14T02:54:54;22.70;;;11.43;;
72127;SDS011;60000;51.030;7.024;2022-09-14T02:57:24;22.77;;;11.18;;
72127;SDS011;60000;51.030;7.024;2022-09-14T02:59:51;23.23;;;11.90;;
72127;SDS011;60000;51.030;7.024;2022-09-14T03:02:17;22.55;;;11.38;;
72127;SDS011;60000;51.030;7.024;2022-09-14T03:04:43;23.83;;;11.77;;
72127;SDS011;60000;51.030;7.024;2022-09-14T03:07:08;22.97;;;12.33;;
72127;SDS011;60000;51.030;7.024;2022-09-14T03:09:33;22.63;;;11.60;;
72127;SDS011;60000;51.030;7.024;2022-09-14T03:11:59;25.50;;;11.87;;
72127;SDS011;60000;51.030;7.024;2022-09-14T03:14:24;26.03;;;11.23;;
72127;SDS011;60000;51.030;7.024;2022-09-14T03:16:49;20.83;;;10.00;;
72127;SDS011;60000;51.030;7.024;2022-09-14T03:19:16;21.50;;;10.63;;
72127;SDS011;60000;51.030;7.024;2022-09-14T03:21:41;23.10;;;11.35;;
72127;SDS011;60000;51.030;7.024;2022-09-14T03:24:06;22.37;;;10.73;;
72127;SDS011;60000;51.030;7.024;2022-09-14T03:26:32;22.13;;;10.47;;
72127;SDS011;60000;51.030;7.024;2022-09-14T03:29:01;23.55;;;11.68;;
72127;SDS011;60000;51.030;7.024;2022-09-14T03:31:27;21.77;;;9.95;;
72127;SDS011;60000;51.030;7.024;2022-09-14T03:33:53;18.93;;;9.43;;
72127;SDS011;60000;51.030;7.024;2022-09-14T03:36:21;18.65;;;9.70;;
72127;SDS011;60000;51.030;7.024;2022-09-14T03:38:47;20.05;;;10.00;;
72127;SDS011;60000;51.030;7.024;2022-09-14T03:41:14;19.87;;;8.80;;
72127;SDS011;60000;51.030;7.024;2022-09-14T03:43:40;19.27;;;9.48;;
72127;SDS011;60000;51.030;7.024;2022-09-14T03:46:07;20.77;;;10.07;;
72127;SDS011;60000;51.030;7.024;2022-09-14T03:48:34;17.98;;;9.77;;
72127;SDS011;60000;51.030;7.024;2022-09-14T03:51:00;21.63;;;10.13;;
72127;SDS011;60000;51.030;7.024;2022-09-14T03:53:26;18.30;;;9.23;;
72127;SDS011;60000;51.030;7.024;2022-09-14T03:55:52;20.20;;;9.77;;
72127;SDS011;60000;51.030;7.024;2022-09-14T03:58:17;19.15;;;9.48;;
72127;SDS011;60000;51.030;7.024;2022-09-14T04:00:43;20.50;;;9.87;;
72127;SDS011;60000;51.030;7.024;2022-09-14T04:03:08;19.10;;;9.47;;
72127;SDS011;60000;51.030;7.024;2022-09-14T04:05:34;23.43;;;10.13;;
72127;SDS011;60000;51.030;7.024;2022-09-14T04:07:59;19.20;;;9.93;;
72127;SDS011;60000;51.030;7.024;2022-09-14T04:10:24;17.83;;;9.23;;
72127;SDS011;60000;51.030;7.024;2022-09-14T04:12:49;16.60;;;8.43;;
72127;SDS011;60000;51.030;7.024;2022-09-14T04:15:15;17.07;;;8.50;;
72127;SDS011;60000;51.030;7.024;2022-09-14T04:17:40;19.92;;;9.55;;
72127;SDS011;60000;51.030;7.024;2022-09-14T04:20:06;18.83;;;9.73;;
72127;SDS011;60000;51.030;7.024;2022-09-14T04:22:32;16.90;;;8.90;;
72127;SDS011;60000;51.030;7.024;2022-09-14T04:24:58;15.87;;;8.07;;
72127;SDS011;60000;51.030;7.024;2022-09-14T04:27:23;13.67;;;7.20;;
72127;SDS011;60000;51.030;7.024;2022-09-14T04:29:49;12.20;;;5.80;;
72127;SDS011;60000;51.030;7.024;2022-09-14T04:32:14;12.90;;;5.97;;
72127;SDS011;60000;51.030;7.024;2022-09-14T04:34:40;11.77;;;5.90;;
72127;SDS011;60000;51.030;7.024;2022-09-14T04:37:06;10.70;;;5.20;;
72127;SDS011;60000;51.030;7.024;2022-09-14T04:39:31;10.60;;;5.40;;
72127;SDS011;60000;51.030;7.024;2022-09-14T04:41:56;9.68;;;4.90;;
72127;SDS011;60000;51.030;7.024;2022-09-14T04:44:22;10.17;;;4.93;;
72127;SDS011;60000;51.030;7.024;2022-09-14T04:46:47;11.87;;;5.87;;
72127;SDS011;60000;51.030;7.024;2022-09-14T04:49:13;10.50;;;5.10;;
72127;SDS011;60000;51.030;7.024;2022-09-14T04:51:42;10.27;;;5.07;;
72127;SDS011;60000;51.030;7.024;2022-09-14T04:54:08;9.47;;;4.77;;
72127;SDS011;60000;51.030;7.024;2022-09-14T04:56:36;13.85;;;5.60;;
72127;SDS011;60000;51.030;7.024;2022-09-14T04:59:02;13.97;;;5.53;;
72127;SDS011;60000;51.030;7.024;2022-09-14T05:01:29;10.45;;;5.30;;
72127;SDS011;60000;51.030;7.024;2022-09-14T05:03:56;10.52;;;5.50;;
72127;SDS011;60000;51.030;7.024;2022-09-14T05:06:23;11.88;;;5.63;;
72127;SDS011;60000;51.030;7.024;2022-09-14T05:08:55;11.75;;;5.60;;
72127;SDS011;60000;51.030;7.024;2022-09-14T05:11:21;11.43;;;5.23;;
72127;SDS011;60000;51.030;7.024;2022-09-14T05:13:48;10.52;;;5.45;;
72127;SDS011;60000;51.030;7.024;2022-09-14T05:18:44;12.88;;;5.40;;
72127;SDS011;60000;51.030;7.024;2022-09-14T05:21:11;11.32;;;5.43;;
72127;SDS011;60000;51.030;7.024;2022-09-14T05:23:39;10.60;;;5.30;;
72127;SDS011;60000;51.030;7.024;2022-09-14T05:26:04;12.10;;;5.97;;
72127;SDS011;60000;51.030;7.024;2022-09-14T05:28:30;12.00;;;5.93;;
72127;SDS011;60000;51.030;7.024;2022-09-14T05:30:56;11.95;;;6.10;;
72127;SDS011;60000;51.030;7.024;2022-09-14T05:33:22;11.73;;;5.67;;
72127;SDS011;60000;51.030;7.024;2022-09-14T05:35:47;9.67;;;5.37;;
72127;SDS011;60000;51.030;7.024;2022-09-14T05:38:13;11.48;;;5.43;;
72127;SDS011;60000;51.030;7.024;2022-09-14T05:40:39;11.77;;;5.35;;
72127;SDS011;60000;51.030;7.024;2022-09-14T05:43:05;10.50;;;5.07;;
72127;SDS011;60000;51.030;7.024;2022-09-14T05:45:30;11.13;;;5.80;;
72127;SDS011;60000;51.030;7.024;2022-09-14T05:47:59;12.43;;;5.47;;
72127;SDS011;60000;51.030;7.024;2022-09-14T05:50:26;11.40;;;5.75;;
72127;SDS011;60000;51.030;7.024;2022-09-14T05:52:51;11.10;;;5.07;;
72127;SDS011;60000;51.030;7.024;2022-09-14T05:55:17;12.17;;;5.60;;
72127;SDS011;60000;51.030;7.024;2022-09-14T05:57:42;11.80;;;5.57;;
72127;SDS011;60000;51.030;7.024;2022-09-14T06:00:07;11.52;;;5.78;;
72127;SDS011;60000;51.030;7.024;2022-09-14T06:02:33;11.77;;;5.73;;
72127;SDS011;60000;51.030;7.024;2022-09-14T06:04:59;12.10;;;5.63;;
72127;SDS011;60000;51.030;7.024;2022-09-14T06:07:24;11.93;;;5.53;;
72127;SDS011;60000;51.030;7.024;2022-09-14T06:09:49;13.60;;;5.33;;
72127;SDS011;60000;51.030;7.024;2022-09-14T06:12:14;10.53;;;5.17;;
72127;SDS011;60000;51.030;7.024;2022-09-14T06:14:40;9.33;;;4.57;;
72127;SDS011;60000;51.030;7.024;2022-09-14T06:17:05;10.70;;;4.77;;
72127;SDS011;60000;51.030;7.024;2022-09-14T06:19:30;12.37;;;4.53;;
72127;SDS011;60000;51.030;7.024;2022-09-14T06:21:56;8.87;;;4.10;;
72127;SDS011;60000;51.030;7.024;2022-09-14T06:24:21;10.23;;;4.40;;
72127;SDS011;60000;51.030;7.024;2022-09-14T06:26:46;7.03;;;3.63;;
72127;SDS011;60000;51.030;7.024;2022-09-14T06:29:11;9.37;;;3.67;;
72127;SDS011;60000;51.030;7.024;2022-09-14T06:31:37;8.47;;;3.93;;
72127;SDS011;60000;51.030;7.024;2022-09-14T06:34:02;7.90;;;3.90;;
72127;SDS011;60000;51.030;7.024;2022-09-14T06:36:28;7.40;;;3.45;;
72127;SDS011;60000;51.030;7.024;2022-09-14T06:38:54;7.80;;;3.70;;
72127;SDS011;60000;51.030;7.024;2022-09-14T06:41:20;7.80;;;3.07;;
72127;SDS011;60000;51.030;7.024;2022-09-14T06:43:47;11.15;;;3.10;;
72127;SDS011;60000;51.030;7.024;2022-09-14T06:46:15;7.18;;;3.33;;
72127;SDS011;60000;51.030;7.024;2022-09-14T06:48:55;7.18;;;3.38;;
72127;SDS011;60000;51.030;7.024;2022-09-14T06:51:24;7.85;;;3.30;;
72127;SDS011;60000;51.030;7.024;2022-09-14T06:53:51;6.23;;;2.77;;
72127;SDS011;60000;51.030;7.024;2022-09-14T06:56:17;7.35;;;3.30;;
72127;SDS011;60000;51.030;7.024;2022-09-14T06:58:44;7.80;;;2.80;;
72127;SDS011;60000;51.030;7.024;2022-09-14T07:01:10;8.30;;;3.27;;
72127;SDS011;60000;51.030;7.024;2022-09-14T07:03:38;6.78;;;3.03;;
72127;SDS011;60000;51.030;7.024;2022-09-14T07:06:05;7.03;;;3.00;;
72127;SDS011;60000;51.030;7.024;2022-09-14T07:08:35;7.60;;;3.13;;
72127;SDS011;60000;51.030;7.024;2022-09-14T07:11:02;9.38;;;2.92;;
72127;SDS011;60000;51.030;7.024;2022-09-14T07:13:28;6.00;;;2.70;;
72127;SDS011;60000;51.030;7.024;2022-09-14T07:15:54;8.55;;;3.10;;
72127;SDS011;60000;51.030;7.024;2022-09-14T07:18:20;6.67;;;2.93;;
72127;SDS011;60000;51.030;7.024;2022-09-14T07:20:47;6.50;;;2.90;;
72127;SDS011;60000;51.030;7.024;2022-09-14T07:23:12;7.47;;;3.50;;
72127;SDS011;60000;51.030;7.024;2022-09-14T07:25:38;9.00;;;3.33;;
72127;SDS011;60000;51.030;7.024;2022-09-14T07:28:04;7.53;;;3.22;;
72127;SDS011;60000;51.030;7.024;2022-09-14T07:30:29;7.73;;;3.20;;
72127;SDS011;60000;51.030;7.024;2022-09-14T07:32:54;6.13;;;2.70;;
72127;SDS011;60000;51.030;7.024;2022-09-14T07:35:20;6.30;;;2.87;;
72127;SDS011;60000;51.030;7.024;2022-09-14T07:37:45;6.47;;;2.60;;
72127;SDS011;60000;51.030;7.024;2022-09-14T07:40:10;6.67;;;2.77;;
72127;SDS011;60000;51.030;7.024;2022-09-14T07:42:36;7.33;;;2.50;;
72127;SDS011;60000;51.030;7.024;2022-09-14T07:45:04;6.78;;;2.40;;
72127;SDS011;60000;51.030;7.024;2022-09-14T07:47:30;5.75;;;2.33;;
72127;SDS011;60000;51.030;7.024;2022-09-14T07:49:56;5.95;;;2.17;;
72127;SDS011;60000;51.030;7.024;2022-09-14T07:52:21;6.03;;;2.20;;
72127;SDS011;60000;51.030;7.024;2022-09-14T07:54:46;5.17;;;2.20;;
72127;SDS011;60000;51.030;7.024;2022-09-14T07:57:12;5.60;;;2.37;;
72127;SDS011;60000;51.030;7.024;2022-09-14T07:59:37;6.00;;;2.30;;
72127;SDS011;60000;51.030;7.024;2022-09-14T08:02:09;6.47;;;2.40;;
72127;SDS011;60000;51.030;7.024;2022-09-14T08:04:35;4.90;;;2.20;;
72127;SDS011;60000;51.030;7.024;2022-09-14T08:07:03;6.25;;;2.17;;
72127;SDS011;60000;51.030;7.024;2022-09-14T08:09:28;5.70;;;2.67;;
72127;SDS011;60000;51.030;7.024;2022-09-14T08:11:54;5.43;;;2.40;;
72127;SDS011;60000;51.030;7.024;2022-09-14T08:14:19;5.80;;;2.47;;
72127;SDS011;60000;51.030;7.024;2022-09-14T08:16:45;6.05;;;2.08;;
72127;SDS011;60000;51.030;7.024;2022-09-14T08:19:12;5.13;;;2.03;;
72127;SDS011;60000;51.030;7.024;2022-09-14T08:21:40;5.70;;;2.17;;
72127;SDS011;60000;51.030;7.024;2022-09-14T08:24:06;6.03;;;2.30;;
72127;SDS011;60000;51.030;7.024;2022-09-14T08:26:32;5.87;;;2.23;;
72127;SDS011;60000;51.030;7.024;2022-09-14T08:29:00;7.10;;;2.17;;
72127;SDS011;60000;51.030;7.024;2022-09-14T08:31:28;6.13;;;2.40;;
72127;SDS011;60000;51.030;7.024;2022-09-14T08:33:58;6.43;;;2.17;;
72127;SDS011;60000;51.030;7.024;2022-09-14T08:36:27;6.28;;;2.60;;
72127;SDS011;60000;51.030;7.024;2022-09-14T08:38:57;6.10;;;2.22;;
72127;SDS011;60000;51.030;7.024;2022-09-14T08:49:47;5.45;;;2.28;;
72127;SDS011;60000;51.030;7.024;2022-09-14T09:06:05;7.70;;;2.23;;
72127;SDS011;60000;51.030;7.024;2022-09-14T09:08:45;7.90;;;2.40;;
72127;SDS011;60000;51.030;7.024;2022-09-14T09:11:23;5.90;;;2.53;;
72127;SDS011;60000;51.030;7.024;2022-09-14T09:13:51;5.55;;;2.10;;
72127;SDS011;60000;51.030;7.024;2022-09-14T09:16:19;6.10;;;2.65;;
72127;SDS011;60000;51.030;7.024;2022-09-14T09:21:32;5.72;;;1.98;;
72127;SDS011;60000;51.030;7.024;2022-09-14T09:24:13;4.88;;;1.98;;
72127;SDS011;60000;51.030;7.024;2022-09-14T09:26:46;5.15;;;2.03;;
72127;SDS011;60000;51.030;7.024;2022-09-14T09:29:11;6.20;;;2.23;;
72127;SDS011;60000;51.030;7.024;2022-09-14T09:31:38;5.73;;;2.30;;
72127;SDS011;60000;51.030;7.024;2022-09-14T09:34:08;5.30;;;1.90;;
72127;SDS011;60000;51.030;7.024;2022-09-14T09:36:37;8.02;;;2.30;;
72127;SDS011;60000;51.030;7.024;2022-09-14T09:39:05;6.55;;;2.20;;
72127;SDS011;60000;51.030;7.024;2022-09-14T09:41:33;5.10;;;2.20;;
72127;SDS011;60000;51.030;7.024;2022-09-14T09:44:21;5.38;;;2.47;;
72127;SDS011;60000;51.030;7.024;2022-09-14T09:46:47;6.33;;;2.00;;
72127;SDS011;60000;51.030;7.024;2022-09-14T09:49:20;5.28;;;2.42;;
72127;SDS011;60000;51.030;7.024;2022-09-14T09:51:57;5.20;;;2.15;;
72127;SDS011;60000;51.030;7.024;2022-09-14T09:54:32;7.13;;;2.53;;
72127;SDS011;60000;51.030;7.024;2022-09-14T09:57:02;6.30;;;2.80;;
72127;SDS011;60000;51.030;7.024;2022-09-14T09:59:43;4.63;;;2.10;;
72127;SDS011;60000;51.030;7.024;2022-09-14T10:02:27;7.70;;;2.58;;
72127;SDS011;60000;51.030;7.024;2022-09-14T10:05:39;5.93;;;2.20;;
72127;SDS011;60000;51.030;7.024;2022-09-14T10:08:05;6.18;;;2.05;;
72127;SDS011;60000;51.030;7.024;2022-09-14T10:10:40;5.77;;;2.00;;
72127;SDS011;60000;51.030;7.024;2022-09-14T10:16:03;6.05;;;2.30;;
72127;SDS011;60000;51.030;7.024;2022-09-14T10:18:36;4.68;;;2.03;;
72127;SDS011;60000;51.030;7.024;2022-09-14T10:21:10;4.97;;;2.00;;
72127;SDS011;60000;51.030;7.024;2022-09-14T10:23:38;7.07;;;2.77;;
72127;SDS011;60000;51.030;7.024;2022-09-14T10:28:41;5.53;;;2.25;;
72127;SDS011;60000;51.030;7.024;2022-09-14T10:33:46;5.57;;;2.20;;
72127;SDS011;60000;51.030;7.024;2022-09-14T10:39:16;4.85;;;2.00;;
72127;SDS011;60000;51.030;7.024;2022-09-14T10:47:02;3.88;;;1.60;;
72127;SDS011;60000;51.030;7.024;2022-09-14T10:49:49;5.00;;;2.43;;
72127;SDS011;60000;51.030;7.024;2022-09-14T10:55:13;6.90;;;2.67;;
72127;SDS011;60000;51.030;7.024;2022-09-14T10:57:59;5.50;;;2.72;;
72127;SDS011;60000;51.030;7.024;2022-09-14T11:00:34;4.72;;;2.25;;
72127;SDS011;60000;51.030;7.024;2022-09-14T11:03:50;5.00;;;2.07;;
72127;SDS011;60000;51.030;7.024;2022-09-14T11:08:50;5.80;;;2.42;;
72127;SDS011;60000;51.030;7.024;2022-09-14T11:11:32;6.28;;;2.10;;
72127;SDS011;60000;51.030;7.024;2022-09-14T11:17:53;5.00;;;2.10;;
72127;SDS011;60000;51.030;7.024;2022-09-14T11:25:52;7.40;;;2.65;;
72127;SDS011;60000;51.030;7.024;2022-09-14T11:28:26;5.70;;;2.70;;
72127;SDS011;60000;51.030;7.024;2022-09-14T11:31:03;5.10;;;2.20;;
72127;SDS011;60000;51.030;7.024;2022-09-14T11:36:13;3.90;;;1.75;;
72127;SDS011;60000;51.030;7.024;2022-09-14T11:38:44;5.22;;;1.95;;
72127;SDS011;60000;51.030;7.024;2022-09-14T11:54:26;4.45;;;1.80;;
72127;SDS011;60000;51.030;7.024;2022-09-14T11:56:59;7.67;;;2.07;;
72127;SDS011;60000;51.030;7.024;2022-09-14T11:59:33;4.85;;;1.90;;
72127;SDS011;60000;51.030;7.024;2022-09-14T12:12:40;4.40;;;1.95;;
72127;SDS011;60000;51.030;7.024;2022-09-14T12:17:52;4.10;;;1.80;;
72127;SDS011;60000;51.030;7.024;2022-09-14T12:23:45;5.95;;;1.92;;
72127;SDS011;60000;51.030;7.024;2022-09-14T12:28:47;5.03;;;1.80;;
72127;SDS011;60000;51.030;7.024;2022-09-14T12:34:22;4.03;;;1.33;;
72127;SDS011;60000;51.030;7.024;2022-09-14T12:39:23;2.97;;;1.23;;
72127;SDS011;60000;51.030;7.024;2022-09-14T12:44:28;6.00;;;1.37;;
72127;SDS011;60000;51.030;7.024;2022-09-14T12:46:53;3.28;;;1.20;;
72127;SDS011;60000;51.030;7.024;2022-09-14T12:49:22;2.43;;;1.07;;
72127;SDS011;60000;51.030;7.024;2022-09-14T12:51:51;2.85;;;1.15;;
72127;SDS011;60000;51.030;7.024;2022-09-14T12:56:51;2.93;;;1.30;;
72127;SDS011;60000;51.030;7.024;2022-09-14T13:05:04;3.70;;;1.50;;
72127;SDS011;60000;51.030;7.024;2022-09-14T13:07:32;3.90;;;1.58;;
72127;SDS011;60000;51.030;7.024;2022-09-14T13:10:00;5.50;;;1.30;;
72127;SDS011;60000;51.030;7.024;2022-09-14T13:15:15;3.67;;;1.50;;
72127;SDS011;60000;51.030;7.024;2022-09-14T13:17:58;5.45;;;1.60;;
72127;SDS011;60000;51.030;7.024;2022-09-14T13:20:32;5.50;;;1.40;;
72127;SDS011;60000;51.030;7.024;2022-09-14T13:22:59;4.30;;;1.53;;
72127;SDS011;60000;51.030;7.024;2022-09-14T13:25:26;4.40;;;1.45;;
72127;SDS011;60000;51.030;7.024;2022-09-14T13:27:56;4.93;;;1.50;;
72127;SDS011;60000;51.030;7.024;2022-09-14T13:30:24;4.93;;;1.30;;
72127;SDS011;60000;51.030;7.024;2022-09-14T13:32:52;3.58;;;1.40;;
72127;SDS011;60000;51.030;7.024;2022-09-14T13:35:26;3.40;;;1.30;;
72127;SDS011;60000;51.030;7.024;2022-09-14T13:37:52;4.03;;;1.58;;
72127;SDS011;60000;51.030;7.024;2022-09-14T13:40:21;4.03;;;1.40;;
72127;SDS011;60000;51.030;7.024;2022-09-14T13:42:49;4.30;;;1.30;;
72127;SDS011;60000;51.030;7.024;2022-09-14T13:45:14;3.43;;;1.37;;
72127;SDS011;60000;51.030;7.024;2022-09-14T13:47:40;3.13;;;1.15;;
72127;SDS011;60000;51.030;7.024;2022-09-14T13:50:06;6.53;;;1.50;;
72127;SDS011;60000;51.030;7.024;2022-09-14T13:52:35;3.75;;;1.42;;
72127;SDS011;60000;51.030;7.024;2022-09-14T14:00:58;4.07;;;1.40;;
72127;SDS011;60000;51.030;7.024;2022-09-14T14:03:37;3.45;;;1.25;;
72127;SDS011;60000;51.030;7.024;2022-09-14T14:09:08;3.50;;;1.40;;
72127;SDS011;60000;51.030;7.024;2022-09-14T14:14:35;3.78;;;1.50;;
72127;SDS011;60000;51.030;7.024;2022-09-14T14:19:37;2.75;;;1.20;;
72127;SDS011;60000;51.030;7.024;2022-09-14T14:24:39;3.90;;;1.50;;
72127;SDS011;60000;51.030;7.024;2022-09-14T14:27:05;5.65;;;1.50;;
72127;SDS011;60000;51.030;7.024;2022-09-14T14:29:42;4.05;;;1.65;;
72127;SDS011;60000;51.030;7.024;2022-09-14T14:32:08;3.63;;;1.67;;
72127;SDS011;60000;51.030;7.024;2022-09-14T14:34:33;3.40;;;1.30;;
72127;SDS011;60000;51.030;7.024;2022-09-14T14:36:59;3.27;;;1.27;;
72127;SDS011;60000;51.030;7.024;2022-09-14T14:39:26;4.63;;;1.30;;
72127;SDS011;60000;51.030;7.024;2022-09-14T14:41:51;4.05;;;1.48;;
72127;SDS011;60000;51.030;7.024;2022-09-14T14:44:21;3.90;;;1.20;;
72127;SDS011;60000;51.030;7.024;2022-09-14T14:46:49;4.47;;;1.65;;
72127;SDS011;60000;51.030;7.024;2022-09-14T14:49:15;3.95;;;1.40;;
72127;SDS011;60000;51.030;7.024;2022-09-14T14:51:41;4.63;;;1.50;;
72127;SDS011;60000;51.030;7.024;2022-09-14T14:54:07;3.50;;;1.42;;
72127;SDS011;60000;51.030;7.024;2022-09-14T14:56:34;3.85;;;1.38;;
72127;SDS011;60000;51.030;7.024;2022-09-14T14:59:00;4.22;;;1.75;;
72127;SDS011;60000;51.030;7.024;2022-09-14T15:01:26;4.40;;;1.53;;
72127;SDS011;60000;51.030;7.024;2022-09-14T15:03:51;3.93;;;1.70;;
72127;SDS011;60000;51.030;7.024;2022-09-14T15:06:18;2.80;;;1.17;;
72127;SDS011;60000;51.030;7.024;2022-09-14T15:08:44;4.90;;;1.87;;
72127;SDS011;60000;51.030;7.024;2022-09-14T15:11:14;4.10;;;1.60;;
72127;SDS011;60000;51.030;7.024;2022-09-14T15:13:41;4.63;;;1.70;;
72127;SDS011;60000;51.030;7.024;2022-09-14T15:16:07;4.07;;;1.53;;
72127;SDS011;60000;51.030;7.024;2022-09-14T15:18:32;5.23;;;1.90;;
72127;SDS011;60000;51.030;7.024;2022-09-14T15:20:58;4.90;;;1.83;;
72127;SDS011;60000;51.030;7.024;2022-09-14T15:23:23;4.20;;;1.80;;
72127;SDS011;60000;51.030;7.024;2022-09-14T15:25:52;4.50;;;1.63;;
72127;SDS011;60000;51.030;7.024;2022-09-14T15:28:17;4.85;;;1.58;;
72127;SDS011;60000;51.030;7.024;2022-09-14T15:30:43;3.43;;;1.50;;
72127;SDS011;60000;51.030;7.024;2022-09-14T15:33:08;3.50;;;1.40;;
72127;SDS011;60000;51.030;7.024;2022-09-14T15:35:34;3.40;;;1.35;;
72127;SDS011;60000;51.030;7.024;2022-09-14T15:37:59;3.90;;;1.60;;
72127;SDS011;60000;51.030;7.024;2022-09-14T15:40:25;3.83;;;1.40;;
72127;SDS011;60000;51.030;7.024;2022-09-14T15:42:50;3.97;;;1.70;;
72127;SDS011;60000;51.030;7.024;2022-09-14T15:45:16;4.30;;;1.70;;
72127;SDS011;60000;51.030;7.024;2022-09-14T15:47:41;3.90;;;1.40;;
72127;SDS011;60000;51.030;7.024;2022-09-14T15:50:07;6.30;;;1.50;;
72127;SDS011;60000;51.030;7.024;2022-09-14T15:52:34;4.57;;;1.40;;
72127;SDS011;60000;51.030;7.024;2022-09-14T15:55:00;3.33;;;1.50;;
72127;SDS011;60000;51.030;7.024;2022-09-14T15:57:26;3.37;;;1.50;;
72127;SDS011;60000;51.030;7.024;2022-09-14T15:59:52;5.87;;;1.63;;
72127;SDS011;60000;51.030;7.024;2022-09-14T16:02:18;4.22;;;1.60;;
72127;SDS011;60000;51.030;7.024;2022-09-14T16:04:44;4.68;;;1.83;;
72127;SDS011;60000;51.030;7.024;2022-09-14T16:07:09;3.10;;;1.27;;
72127;SDS011;60000;51.030;7.024;2022-09-14T16:09:38;4.43;;;1.40;;
72127;SDS011;60000;51.030;7.024;2022-09-14T16:12:05;6.28;;;1.30;;
72127;SDS011;60000;51.030;7.024;2022-09-14T16:14:31;4.47;;;1.58;;
72127;SDS011;60000;51.030;7.024;2022-09-14T16:16:57;3.97;;;1.50;;
72127;SDS011;60000;51.030;7.024;2022-09-14T16:19:23;3.78;;;1.50;;
72127;SDS011;60000;51.030;7.024;2022-09-14T16:21:49;3.80;;;1.27;;
72127;SDS011;60000;51.030;7.024;2022-09-14T16:24:15;4.23;;;1.70;;
72127;SDS011;60000;51.030;7.024;2022-09-14T16:26:42;3.85;;;1.63;;
72127;SDS011;60000;51.030;7.024;2022-09-14T16:29:10;4.83;;;1.83;;
72127;SDS011;60000;51.030;7.024;2022-09-14T16:31:37;4.63;;;1.80;;
72127;SDS011;60000;51.030;7.024;2022-09-14T16:34:05;7.72;;;1.85;;
72127;SDS011;60000;51.030;7.024;2022-09-14T16:36:39;4.65;;;1.63;;
72127;SDS011;60000;51.030;7.024;2022-09-14T16:39:06;3.88;;;1.55;;
72127;SDS011;60000;51.030;7.024;2022-09-14T16:41:34;4.13;;;1.50;;
72127;SDS011;60000;51.030;7.024;2022-09-14T16:44:02;4.40;;;1.70;;
72127;SDS011;60000;51.030;7.024;2022-09-14T16:46:29;4.07;;;1.60;;
72127;SDS011;60000;51.030;7.024;2022-09-14T16:48:55;4.10;;;1.70;;
72127;SDS011;60000;51.030;7.024;2022-09-14T16:51:23;4.30;;;1.75;;
72127;SDS011;60000;51.030;7.024;2022-09-14T16:53:50;4.27;;;1.70;;
72127;SDS011;60000;51.030;7.024;2022-09-14T16:56:17;4.30;;;1.70;;
72127;SDS011;60000;51.030;7.024;2022-09-14T16:58:45;5.15;;;1.80;;
72127;SDS011;60000;51.030;7.024;2022-09-14T17:03:41;5.18;;;2.20;;
72127;SDS011;60000;51.030;7.024;2022-09-14T17:06:09;4.80;;;2.00;;
72127;SDS011;60000;51.030;7.024;2022-09-14T17:08:39;5.22;;;2.10;;
72127;SDS011;60000;51.030;7.024;2022-09-14T17:11:05;5.20;;;2.33;;
72127;SDS011;60000;51.030;7.024;2022-09-14T17:13:31;10.30;;;2.43;;
72127;SDS011;60000;51.030;7.024;2022-09-14T17:16:00;5.90;;;2.28;;
72127;SDS011;60000;51.030;7.024;2022-09-14T17:18:29;5.15;;;1.88;;
72127;SDS011;60000;51.030;7.024;2022-09-14T17:20:55;4.83;;;1.73;;
72127;SDS011;60000;51.030;7.024;2022-09-14T17:23:23;5.05;;;1.83;;
72127;SDS011;60000;51.030;7.024;2022-09-14T17:25:48;6.23;;;2.20;;
72127;SDS011;60000;51.030;7.024;2022-09-14T17:28:14;4.37;;;2.00;;
72127;SDS011;60000;51.030;7.024;2022-09-14T17:30:40;6.10;;;2.20;;